VODO74 CYQQ-CYQQ
Flight info
| Callsign | VODO74 |
|---|---|
| Flight time | 1h 2m |
| Altitude | 27000 |
| Route | PILSA DCT LYTON DCT SEKAB DCT PILMA DCT VIVEK DCT DATBO DCT CYLW DCT ULEKA DCT BOXAR DCT GABER DCT TABVO DCT MERYT DCT GABAL DCT ITKUG |
| Aircraft | F18H/M-SDGHITUY/LB1 |
Departure
| Time | 2026-04-20 02:58 |
|---|---|
| Airport | Comox Valley International Airport / CFB Comox (CYQQ) |
Arrival
| Time | 2026-04-20 04:00 |
|---|---|
| Airport | Comox Valley International Airport / CFB Comox (CYQQ) |
| Time | Latitude | Longitude | Altitude | Speed | Heading |
|---|---|---|---|---|---|
| 2026-04-20 02:49 | 49.71291 | -124.89286 | 85 ft | 0 kts | 136° |
| 2026-04-20 02:56 | 49.71285 | -124.89272 | 85 ft | 15 kts | 119° |
| 2026-04-20 02:57 | 49.71134 | -124.89002 | 85 ft | 39 kts | 136° |
| 2026-04-20 02:57 | 49.70935 | -124.88694 | 91 ft | 43 kts | 134° |
| 2026-04-20 02:57 | 49.70888 | -124.88452 | 89 ft | 24 kts | 22° |
| 2026-04-20 02:57 | 49.71052 | -124.88575 | 92 ft | 28 kts | 316° |
| 2026-04-20 02:58 | 49.71717 | -124.89578 | 167 ft | 217 kts | 314° |
| 2026-04-20 02:58 | 49.72345 | -124.90687 | 3600 ft | 110 kts | 307° |
| 2026-04-20 02:58 | 49.73232 | -124.91889 | 5224 ft | 225 kts | 322° |
| 2026-04-20 02:58 | 49.74705 | -124.93531 | 6850 ft | 294 kts | 324° |
| 2026-04-20 02:59 | 49.76540 | -124.95515 | 9240 ft | 347 kts | 324° |
| 2026-04-20 02:59 | 49.78553 | -124.97728 | 12669 ft | 358 kts | 323° |
| 2026-04-20 02:59 | 49.80556 | -124.99973 | 16792 ft | 347 kts | 323° |
| 2026-04-20 02:59 | 49.82611 | -125.02304 | 19426 ft | 413 kts | 323° |
| 2026-04-20 03:00 | 49.84886 | -125.04850 | 21853 ft | 426 kts | 327° |
| 2026-04-20 03:00 | 49.87647 | -125.06717 | 24158 ft | 444 kts | 354° |
| 2026-04-20 03:00 | 49.90756 | -125.06073 | 25650 ft | 459 kts | 26° |
| 2026-04-20 03:00 | 49.92952 | -125.02900 | 26248 ft | 417 kts | 69° |
| 2026-04-20 03:01 | 49.93325 | -124.98700 | 26636 ft | 385 kts | 89° |
| 2026-04-20 03:01 | 49.93377 | -124.94616 | 26840 ft | 373 kts | 90° |
| 2026-04-20 03:01 | 49.93370 | -124.90640 | 26929 ft | 363 kts | 91° |
| 2026-04-20 03:01 | 49.93324 | -124.86759 | 26966 ft | 354 kts | 91° |
| 2026-04-20 03:02 | 49.93302 | -124.82965 | 26947 ft | 348 kts | 91° |
| 2026-04-20 03:02 | 49.93300 | -124.79292 | 26938 ft | 341 kts | 90° |
| 2026-04-20 03:02 | 49.93306 | -124.75625 | 26935 ft | 339 kts | 90° |
| 2026-04-20 03:02 | 49.93315 | -124.71973 | 26938 ft | 349 kts | 90° |
| 2026-04-20 03:03 | 49.93323 | -124.67851 | 26942 ft | 416 kts | 90° |
| 2026-04-20 03:03 | 49.93331 | -124.63170 | 26941 ft | 435 kts | 90° |
| 2026-04-20 03:03 | 49.93340 | -124.58440 | 26935 ft | 443 kts | 90° |
| 2026-04-20 03:03 | 49.93349 | -124.53635 | 26931 ft | 446 kts | 90° |
| 2026-04-20 03:04 | 49.93358 | -124.48810 | 26932 ft | 449 kts | 90° |
| 2026-04-20 03:04 | 49.93367 | -124.43946 | 26934 ft | 453 kts | 90° |
| 2026-04-20 03:04 | 49.93376 | -124.39030 | 26931 ft | 457 kts | 90° |
| 2026-04-20 03:04 | 49.93384 | -124.34113 | 26934 ft | 463 kts | 90° |
| 2026-04-20 03:05 | 49.93392 | -124.29062 | 26933 ft | 471 kts | 90° |
| 2026-04-20 03:05 | 49.93399 | -124.23936 | 26935 ft | 481 kts | 90° |
| 2026-04-20 03:05 | 49.93405 | -124.18670 | 26940 ft | 494 kts | 90° |
| 2026-04-20 03:05 | 49.93411 | -124.13259 | 26939 ft | 509 kts | 90° |
| 2026-04-20 03:06 | 49.93415 | -124.07667 | 26940 ft | 525 kts | 90° |
| 2026-04-20 03:06 | 49.93419 | -124.01894 | 26943 ft | 543 kts | 90° |
| 2026-04-20 03:06 | 49.93422 | -123.96010 | 26938 ft | 560 kts | 90° |
| 2026-04-20 03:06 | 49.93425 | -123.89868 | 26944 ft | 577 kts | 90° |
| 2026-04-20 03:07 | 49.93427 | -123.83534 | 26944 ft | 593 kts | 90° |
| 2026-04-20 03:07 | 49.93428 | -123.77057 | 26940 ft | 605 kts | 90° |
| 2026-04-20 03:07 | 49.93429 | -123.70486 | 26937 ft | 610 kts | 90° |
| 2026-04-20 03:07 | 49.93429 | -123.63917 | 26930 ft | 603 kts | 90° |
| 2026-04-20 03:08 | 49.93429 | -123.57521 | 26928 ft | 597 kts | 90° |
| 2026-04-20 03:08 | 49.93428 | -123.51093 | 26927 ft | 594 kts | 90° |
| 2026-04-20 03:08 | 49.93430 | -123.44692 | 26926 ft | 591 kts | 90° |
| 2026-04-20 03:08 | 49.93435 | -123.38330 | 26927 ft | 588 kts | 90° |
| 2026-04-20 03:09 | 49.93369 | -123.31999 | 26934 ft | 585 kts | 96° |
| 2026-04-20 03:09 | 49.93008 | -123.25726 | 26947 ft | 582 kts | 92° |
| 2026-04-20 03:09 | 49.93119 | -123.19453 | 26948 ft | 581 kts | 84° |
| 2026-04-20 03:09 | 49.93566 | -123.13230 | 26950 ft | 578 kts | 87° |
| 2026-04-20 03:10 | 49.93755 | -123.07010 | 26939 ft | 576 kts | 89° |
| 2026-04-20 03:10 | 49.93831 | -123.00798 | 26927 ft | 574 kts | 90° |
| 2026-04-20 03:10 | 49.93859 | -122.94606 | 26928 ft | 572 kts | 90° |
| 2026-04-20 03:10 | 49.93864 | -122.90526 | 26928 ft | 571 kts | 90° |
| 2026-04-20 03:11 | 49.93862 | -122.82355 | 26923 ft | 568 kts | 90° |
| 2026-04-20 03:11 | 49.93855 | -122.76219 | 26925 ft | 566 kts | 90° |
| 2026-04-20 03:11 | 49.93845 | -122.70116 | 26924 ft | 564 kts | 90° |
| 2026-04-20 03:11 | 49.93837 | -122.66073 | 26917 ft | 563 kts | 91° |
| 2026-04-20 03:12 | 49.93825 | -122.59997 | 26919 ft | 561 kts | 90° |
| 2026-04-20 03:12 | 49.93810 | -122.53938 | 26913 ft | 559 kts | 91° |
| 2026-04-20 03:12 | 49.93832 | -122.47924 | 26910 ft | 557 kts | 86° |
| 2026-04-20 03:12 | 49.94399 | -122.41996 | 26928 ft | 554 kts | 75° |
| 2026-04-20 03:13 | 49.95578 | -122.36333 | 26922 ft | 550 kts | 66° |
| 2026-04-20 03:13 | 49.97361 | -122.31112 | 26930 ft | 546 kts | 56° |
| 2026-04-20 03:13 | 49.99345 | -122.26098 | 26917 ft | 543 kts | 64° |
| 2026-04-20 03:13 | 50.00716 | -122.20659 | 26911 ft | 539 kts | 75° |
| 2026-04-20 03:14 | 50.01392 | -122.14951 | 26913 ft | 535 kts | 85° |
| 2026-04-20 03:14 | 50.01602 | -122.09205 | 26895 ft | 532 kts | 89° |
| 2026-04-20 03:14 | 50.01671 | -122.03477 | 26885 ft | 528 kts | 90° |
| 2026-04-20 03:14 | 50.01690 | -121.97782 | 26879 ft | 525 kts | 90° |
| 2026-04-20 03:15 | 50.01688 | -121.92191 | 26867 ft | 522 kts | 90° |
| 2026-04-20 03:15 | 50.01624 | -121.86571 | 26863 ft | 517 kts | 96° |
| 2026-04-20 03:15 | 50.01007 | -121.81115 | 26869 ft | 509 kts | 107° |
| 2026-04-20 03:15 | 50.00354 | -121.75675 | 26873 ft | 504 kts | 94° |
| 2026-04-20 03:16 | 50.00367 | -121.70340 | 26867 ft | 497 kts | 86° |
| 2026-04-20 03:16 | 50.00770 | -121.65038 | 26857 ft | 490 kts | 81° |
| 2026-04-20 03:16 | 50.01619 | -121.59976 | 26868 ft | 479 kts | 67° |
| 2026-04-20 03:16 | 50.03174 | -121.55492 | 26867 ft | 463 kts | 56° |
| 2026-04-20 03:17 | 50.04787 | -121.51244 | 26852 ft | 448 kts | 62° |
| 2026-04-20 03:17 | 50.06137 | -121.46999 | 26853 ft | 427 kts | 70° |
| 2026-04-20 03:17 | 50.06831 | -121.42630 | 26860 ft | 405 kts | 83° |
| 2026-04-20 03:17 | 50.07066 | -121.38378 | 26853 ft | 383 kts | 87° |
| 2026-04-20 03:18 | 50.07169 | -121.34353 | 26843 ft | 362 kts | 90° |
| 2026-04-20 03:18 | 50.07032 | -121.30565 | 26846 ft | 340 kts | 93° |
| 2026-04-20 03:18 | 50.07016 | -121.27045 | 26845 ft | 318 kts | 88° |
| 2026-04-20 03:18 | 50.07126 | -121.23572 | 26850 ft | 327 kts | 86° |
| 2026-04-20 03:19 | 50.07287 | -121.19998 | 26854 ft | 333 kts | 86° |
| 2026-04-20 03:19 | 50.07469 | -121.16402 | 26853 ft | 333 kts | 85° |
| 2026-04-20 03:19 | 50.07660 | -121.12790 | 26864 ft | 340 kts | 85° |
| 2026-04-20 03:19 | 50.07865 | -121.09052 | 26864 ft | 353 kts | 85° |
| 2026-04-20 03:20 | 50.08078 | -121.05171 | 26864 ft | 366 kts | 85° |
| 2026-04-20 03:20 | 50.08299 | -121.01143 | 26867 ft | 380 kts | 85° |
| 2026-04-20 03:20 | 50.08525 | -120.97019 | 26870 ft | 395 kts | 85° |
| 2026-04-20 03:20 | 50.08765 | -120.92667 | 26869 ft | 411 kts | 85° |
| 2026-04-20 03:21 | 50.09015 | -120.88126 | 26867 ft | 432 kts | 85° |
| 2026-04-20 03:21 | 50.09277 | -120.83368 | 26866 ft | 450 kts | 85° |
| 2026-04-20 03:21 | 50.09551 | -120.78396 | 26865 ft | 471 kts | 85° |
| 2026-04-20 03:21 | 50.09835 | -120.73237 | 26869 ft | 484 kts | 85° |
| 2026-04-20 03:22 | 50.10127 | -120.67929 | 26868 ft | 500 kts | 85° |
| 2026-04-20 03:22 | 50.10407 | -120.62449 | 26876 ft | 517 kts | 88° |
| 2026-04-20 03:22 | 50.10386 | -120.56722 | 26881 ft | 535 kts | 92° |
| 2026-04-20 03:22 | 50.10187 | -120.50889 | 26870 ft | 555 kts | 94° |
| 2026-04-20 03:23 | 50.09908 | -120.44773 | 26883 ft | 577 kts | 95° |
| 2026-04-20 03:23 | 50.09591 | -120.38506 | 26880 ft | 581 kts | 95° |
| 2026-04-20 03:23 | 50.09262 | -120.32248 | 26874 ft | 578 kts | 95° |
| 2026-04-20 03:23 | 50.08931 | -120.26024 | 26877 ft | 577 kts | 95° |
| 2026-04-20 03:24 | 50.08598 | -120.19809 | 26882 ft | 576 kts | 95° |
| 2026-04-20 03:24 | 50.08264 | -120.13573 | 26886 ft | 575 kts | 95° |
| 2026-04-20 03:24 | 50.07933 | -120.07374 | 26750 ft | 576 kts | 95° |
| 2026-04-20 03:24 | 50.07603 | -120.01200 | 25985 ft | 567 kts | 95° |
| 2026-04-20 03:25 | 50.07278 | -119.95123 | 24910 ft | 562 kts | 95° |
| 2026-04-20 03:25 | 50.06949 | -119.89060 | 23372 ft | 560 kts | 95° |
| 2026-04-20 03:25 | 50.06614 | -119.82956 | 20939 ft | 563 kts | 95° |
| 2026-04-20 03:25 | 50.06289 | -119.76998 | 19253 ft | 540 kts | 95° |
| 2026-04-20 03:26 | 50.06682 | -119.71519 | 18022 ft | 483 kts | 52° |
| 2026-04-20 03:26 | 50.09086 | -119.69001 | 17728 ft | 407 kts | 21° |
| 2026-04-20 03:26 | 50.11676 | -119.67247 | 16188 ft | 404 kts | 21° |
| 2026-04-20 03:26 | 50.14245 | -119.65482 | 14762 ft | 401 kts | 21° |
| 2026-04-20 03:27 | 50.16798 | -119.63740 | 13396 ft | 399 kts | 21° |
| 2026-04-20 03:27 | 50.19340 | -119.62025 | 11978 ft | 395 kts | 21° |
| 2026-04-20 03:27 | 50.21864 | -119.60339 | 10660 ft | 392 kts | 21° |
| 2026-04-20 03:27 | 50.24364 | -119.58689 | 9398 ft | 388 kts | 21° |
| 2026-04-20 03:28 | 50.26142 | -119.56045 | 8258 ft | 345 kts | 85° |
| 2026-04-20 03:28 | 50.26195 | -119.52527 | 7824 ft | 316 kts | 90° |
| 2026-04-20 03:28 | 50.25980 | -119.46191 | 6841 ft | 268 kts | 120° |
| 2026-04-20 03:29 | 50.24658 | -119.44365 | 5924 ft | 254 kts | 160° |
| 2026-04-20 03:29 | 50.22950 | -119.43641 | 5047 ft | 253 kts | 167° |
| 2026-04-20 03:29 | 50.21283 | -119.43021 | 4606 ft | 240 kts | 167° |
| 2026-04-20 03:29 | 50.19698 | -119.42421 | 4160 ft | 229 kts | 167° |
| 2026-04-20 03:30 | 50.18202 | -119.41942 | 3994 ft | 204 kts | 175° |
| 2026-04-20 03:30 | 50.16875 | -119.41713 | 4014 ft | 193 kts | 171° |
| 2026-04-20 03:30 | 50.15423 | -119.41284 | 4125 ft | 232 kts | 170° |
| 2026-04-20 03:30 | 50.13713 | -119.40778 | 4378 ft | 267 kts | 169° |
| 2026-04-20 03:31 | 50.11778 | -119.40175 | 4746 ft | 299 kts | 169° |
| 2026-04-20 03:31 | 50.09574 | -119.39638 | 4677 ft | 351 kts | 176° |
| 2026-04-20 03:31 | 50.06945 | -119.39438 | 4482 ft | 398 kts | 177° |
| 2026-04-20 03:31 | 50.04421 | -119.39162 | 3904 ft | 327 kts | 174° |
| 2026-04-20 03:32 | 50.02314 | -119.38831 | 3277 ft | 288 kts | 173° |
| 2026-04-20 03:32 | 50.00353 | -119.38489 | 2665 ft | 280 kts | 174° |
| 2026-04-20 03:32 | 49.98434 | -119.38217 | 2064 ft | 274 kts | 174° |
| 2026-04-20 03:32 | 49.96652 | -119.37939 | 1448 ft | 252 kts | 172° |
| 2026-04-20 03:33 | 49.95011 | -119.37695 | 1839 ft | 238 kts | 175° |
| 2026-04-20 03:33 | 49.92903 | -119.37547 | 3258 ft | 370 kts | 179° |
| 2026-04-20 03:33 | 49.90112 | -119.39093 | 5115 ft | 508 kts | 221° |
| 2026-04-20 03:33 | 49.87426 | -119.43775 | 6338 ft | 657 kts | 230° |
| 2026-04-20 03:34 | 49.84339 | -119.49512 | 7764 ft | 703 kts | 230° |
| 2026-04-20 03:34 | 49.81468 | -119.54880 | 10246 ft | 601 kts | 231° |
| 2026-04-20 03:34 | 49.78926 | -119.59629 | 12825 ft | 548 kts | 231° |
| 2026-04-20 03:34 | 49.76926 | -119.64332 | 15040 ft | 503 kts | 259° |
| 2026-04-20 03:35 | 49.77483 | -119.69386 | 16730 ft | 483 kts | 291° |
| 2026-04-20 03:35 | 49.78817 | -119.74297 | 18269 ft | 527 kts | 293° |
| 2026-04-20 03:35 | 49.80497 | -119.79870 | 19925 ft | 614 kts | 295° |
| 2026-04-20 03:35 | 49.82519 | -119.85980 | 21987 ft | 668 kts | 297° |
| 2026-04-20 03:36 | 49.84655 | -119.92098 | 24090 ft | 619 kts | 298° |
| 2026-04-20 03:36 | 49.86727 | -119.97700 | 25878 ft | 583 kts | 300° |
| 2026-04-20 03:36 | 49.88814 | -120.03051 | 26457 ft | 583 kts | 301° |
| 2026-04-20 03:36 | 49.90968 | -120.08447 | 26426 ft | 589 kts | 296° |
| 2026-04-20 03:37 | 49.92081 | -120.14539 | 26358 ft | 592 kts | 275° |
| 2026-04-20 03:37 | 49.92518 | -120.20900 | 26317 ft | 593 kts | 276° |
| 2026-04-20 03:37 | 49.92998 | -120.27249 | 26289 ft | 591 kts | 276° |
| 2026-04-20 03:37 | 49.93474 | -120.33501 | 26265 ft | 590 kts | 276° |
| 2026-04-20 03:38 | 49.93934 | -120.39826 | 26231 ft | 590 kts | 276° |
| 2026-04-20 03:38 | 49.94359 | -120.46161 | 26205 ft | 590 kts | 275° |
| 2026-04-20 03:38 | 49.94739 | -120.52503 | 26178 ft | 589 kts | 274° |
| 2026-04-20 03:38 | 49.94912 | -120.58858 | 26167 ft | 589 kts | 268° |
| 2026-04-20 03:39 | 49.94666 | -120.65207 | 26144 ft | 589 kts | 265° |
| 2026-04-20 03:39 | 49.94461 | -120.71584 | 26125 ft | 589 kts | 270° |
| 2026-04-20 03:39 | 49.94494 | -120.77867 | 26102 ft | 589 kts | 268° |
| 2026-04-20 03:39 | 49.94316 | -120.84219 | 26078 ft | 589 kts | 269° |
| 2026-04-20 03:40 | 49.94286 | -120.90580 | 26054 ft | 589 kts | 269° |
| 2026-04-20 03:40 | 49.94201 | -120.96948 | 26022 ft | 589 kts | 268° |
| 2026-04-20 03:40 | 49.94313 | -121.03311 | 26005 ft | 589 kts | 275° |
| 2026-04-20 03:40 | 49.94748 | -121.09636 | 25976 ft | 589 kts | 275° |
| 2026-04-20 03:41 | 49.94969 | -121.16000 | 25949 ft | 589 kts | 271° |
| 2026-04-20 03:41 | 49.95194 | -121.22365 | 25922 ft | 589 kts | 275° |
| 2026-04-20 03:41 | 49.95602 | -121.28688 | 25897 ft | 588 kts | 276° |
| 2026-04-20 03:41 | 49.96137 | -121.34913 | 25871 ft | 588 kts | 278° |
| 2026-04-20 03:42 | 49.96706 | -121.41225 | 25857 ft | 588 kts | 274° |
| 2026-04-20 03:42 | 49.96881 | -121.47568 | 25836 ft | 587 kts | 270° |
| 2026-04-20 03:42 | 49.96852 | -121.53919 | 25802 ft | 587 kts | 269° |
| 2026-04-20 03:42 | 49.96755 | -121.60258 | 25775 ft | 587 kts | 268° |
| 2026-04-20 03:43 | 49.96690 | -121.66607 | 25764 ft | 588 kts | 272° |
| 2026-04-20 03:43 | 49.97006 | -121.72935 | 25751 ft | 588 kts | 276° |
| 2026-04-20 03:43 | 49.97329 | -121.79270 | 25742 ft | 588 kts | 271° |
| 2026-04-20 03:43 | 49.97446 | -121.85612 | 25717 ft | 588 kts | 274° |
| 2026-04-20 03:44 | 49.97723 | -121.91948 | 25706 ft | 588 kts | 271° |
| 2026-04-20 03:44 | 49.97881 | -121.98217 | 25691 ft | 588 kts | 273° |
| 2026-04-20 03:44 | 49.98115 | -122.04568 | 25664 ft | 588 kts | 271° |
| 2026-04-20 03:44 | 49.98294 | -122.10940 | 25627 ft | 589 kts | 273° |
| 2026-04-20 03:45 | 49.98505 | -122.17287 | 25613 ft | 589 kts | 271° |
| 2026-04-20 03:45 | 49.98685 | -122.23645 | 25594 ft | 589 kts | 272° |
| 2026-04-20 03:45 | 49.98884 | -122.29996 | 25569 ft | 589 kts | 271° |
| 2026-04-20 03:45 | 49.99061 | -122.36370 | 25550 ft | 589 kts | 272° |
| 2026-04-20 03:46 | 49.99251 | -122.42730 | 25525 ft | 589 kts | 271° |
| 2026-04-20 03:46 | 49.99422 | -122.49103 | 25500 ft | 589 kts | 272° |
| 2026-04-20 03:46 | 49.99604 | -122.55453 | 25478 ft | 589 kts | 271° |
| 2026-04-20 03:46 | 49.99768 | -122.61826 | 25457 ft | 590 kts | 272° |
| 2026-04-20 03:47 | 49.99944 | -122.68204 | 25440 ft | 590 kts | 271° |
| 2026-04-20 03:47 | 50.00100 | -122.74503 | 25418 ft | 590 kts | 272° |
| 2026-04-20 03:47 | 50.00267 | -122.80887 | 25397 ft | 590 kts | 271° |
| 2026-04-20 03:47 | 50.00420 | -122.87280 | 25376 ft | 591 kts | 271° |
| 2026-04-20 03:48 | 50.00579 | -122.93665 | 25353 ft | 591 kts | 271° |
| 2026-04-20 03:48 | 50.00567 | -123.00042 | 25333 ft | 590 kts | 264° |
| 2026-04-20 03:48 | 49.99902 | -123.06326 | 25328 ft | 589 kts | 255° |
| 2026-04-20 03:48 | 49.98615 | -123.12363 | 25334 ft | 589 kts | 247° |
| 2026-04-20 03:49 | 49.96932 | -123.18163 | 25311 ft | 589 kts | 244° |
| 2026-04-20 03:49 | 49.95133 | -123.23884 | 25282 ft | 589 kts | 244° |
| 2026-04-20 03:49 | 49.93544 | -123.29755 | 25263 ft | 590 kts | 250° |
| 2026-04-20 03:49 | 49.92157 | -123.35756 | 25237 ft | 590 kts | 247° |
| 2026-04-20 03:50 | 49.90525 | -123.41597 | 25217 ft | 590 kts | 247° |
| 2026-04-20 03:50 | 49.89053 | -123.47462 | 25199 ft | 591 kts | 248° |
| 2026-04-20 03:50 | 49.87447 | -123.53325 | 25176 ft | 591 kts | 248° |
| 2026-04-20 03:50 | 49.85933 | -123.59242 | 25151 ft | 591 kts | 247° |
| 2026-04-20 03:51 | 49.84329 | -123.65121 | 25127 ft | 591 kts | 248° |
| 2026-04-20 03:51 | 49.82790 | -123.71034 | 25080 ft | 592 kts | 247° |
| 2026-04-20 03:51 | 49.81190 | -123.76916 | 25003 ft | 593 kts | 248° |
| 2026-04-20 03:51 | 49.79632 | -123.82830 | 24877 ft | 594 kts | 247° |
| 2026-04-20 03:52 | 49.78022 | -123.88743 | 24692 ft | 596 kts | 247° |
| 2026-04-20 03:52 | 49.76485 | -123.94521 | 23550 ft | 567 kts | 247° |
| 2026-04-20 03:52 | 49.74994 | -123.99999 | 22025 ft | 555 kts | 246° |
| 2026-04-20 03:52 | 49.73516 | -124.05497 | 20424 ft | 551 kts | 247° |
| 2026-04-20 03:53 | 49.72032 | -124.10949 | 18793 ft | 549 kts | 246° |
| 2026-04-20 03:53 | 49.70552 | -124.16403 | 16879 ft | 548 kts | 246° |
| 2026-04-20 03:53 | 49.69072 | -124.21837 | 14782 ft | 548 kts | 246° |
| 2026-04-20 03:53 | 49.67596 | -124.27239 | 13279 ft | 540 kts | 246° |
| 2026-04-20 03:54 | 49.66148 | -124.32535 | 11954 ft | 530 kts | 246° |
| 2026-04-20 03:54 | 49.64714 | -124.37754 | 10528 ft | 527 kts | 246° |
| 2026-04-20 03:54 | 49.63338 | -124.42773 | 9023 ft | 477 kts | 246° |
| 2026-04-20 03:54 | 49.62123 | -124.47171 | 7635 ft | 432 kts | 246° |
| 2026-04-20 03:55 | 49.60977 | -124.51328 | 6338 ft | 415 kts | 247° |
| 2026-04-20 03:55 | 49.59854 | -124.55395 | 5004 ft | 410 kts | 247° |
| 2026-04-20 03:55 | 49.58889 | -124.59527 | 4015 ft | 404 kts | 266° |
| 2026-04-20 03:55 | 49.59420 | -124.63602 | 3554 ft | 383 kts | 290° |
| 2026-04-20 03:56 | 49.60422 | -124.67312 | 3348 ft | 367 kts | 295° |
| 2026-04-20 03:56 | 49.61573 | -124.70731 | 3261 ft | 350 kts | 300° |
| 2026-04-20 03:56 | 49.62852 | -124.73851 | 3139 ft | 341 kts | 305° |
| 2026-04-20 03:56 | 49.64277 | -124.76756 | 2889 ft | 340 kts | 309° |
| 2026-04-20 03:57 | 49.65788 | -124.79483 | 2481 ft | 325 kts | 313° |
| 2026-04-20 03:57 | 49.67348 | -124.81961 | 1821 ft | 321 kts | 314° |
| 2026-04-20 03:57 | 49.68801 | -124.84604 | 928 ft | 320 kts | 307° |
| 2026-04-20 03:57 | 49.70198 | -124.87230 | 466 ft | 315 kts | 312° |
| 2026-04-20 03:58 | 49.71781 | -124.87681 | 965 ft | 311 kts | 88° |
| 2026-04-20 03:58 | 49.71224 | -124.85403 | 1172 ft | 357 kts | 121° |
| 2026-04-20 03:58 | 49.69662 | -124.81878 | 1266 ft | 240 kts | 145° |
| 2026-04-20 03:58 | 49.68406 | -124.82102 | 1066 ft | 185 kts | 243° |
| 2026-04-20 03:59 | 49.68364 | -124.83334 | 977 ft | 178 kts | 294° |
| 2026-04-20 03:59 | 49.69007 | -124.85014 | 587 ft | 181 kts | 306° |
| 2026-04-20 03:59 | 49.69762 | -124.86526 | 276 ft | 179 kts | 311° |
| 2026-04-20 03:59 | 49.70625 | -124.87926 | 96 ft | 164 kts | 314° |
| 2026-04-20 04:00 | 49.71237 | -124.88856 | 86 ft | 84 kts | 316° |
| 2026-04-20 04:00 | 49.71614 | -124.89434 | 89 ft | 69 kts | 315° |
| 2026-04-20 04:00 | 49.71910 | -124.89889 | 84 ft | 48 kts | 315° |
| 2026-04-20 04:00 | 49.71990 | -124.90141 | 90 ft | 18 kts | 208° |
| 2026-04-20 04:01 | 49.71875 | -124.90158 | 87 ft | 15 kts | 175° |
| 2026-04-20 04:01 | 49.71774 | -124.90148 | 85 ft | 16 kts | 178° |
| 2026-04-20 04:01 | 49.71722 | -124.90137 | 87 ft | 4 kts | 89° |
| 2026-04-20 04:01 | 49.71733 | -124.90112 | 86 ft | 2 kts | 51° |
| 2026-04-20 04:02 | 49.71736 | -124.90106 | 87 ft | 0 kts | 51° |